sensor_id;sensor_type;location;lat;lon;timestamp;P1;durP1;ratioP1;P2;durP2;ratioP2
59824;SDS011;45703;50.898;6.054;2022-07-29T00:00:42;5.90;;;1.58;;
59824;SDS011;45703;50.898;6.054;2022-07-29T00:03:11;6.22;;;1.40;;
59824;SDS011;45703;50.898;6.054;2022-07-29T00:05:38;5.43;;;1.42;;
59824;SDS011;45703;50.898;6.054;2022-07-29T00:08:04;5.03;;;1.38;;
59824;SDS011;45703;50.898;6.054;2022-07-29T00:10:30;4.88;;;1.50;;
59824;SDS011;45703;50.898;6.054;2022-07-29T00:12:55;6.38;;;1.50;;
59824;SDS011;45703;50.898;6.054;2022-07-29T00:15:20;6.10;;;1.40;;
59824;SDS011;45703;50.898;6.054;2022-07-29T00:17:46;6.05;;;1.60;;
59824;SDS011;45703;50.898;6.054;2022-07-29T00:20:11;5.50;;;1.55;;
59824;SDS011;45703;50.898;6.054;2022-07-29T00:22:37;5.53;;;1.33;;
59824;SDS011;45703;50.898;6.054;2022-07-29T00:25:03;4.90;;;1.30;;
59824;SDS011;45703;50.898;6.054;2022-07-29T00:27:29;4.82;;;1.55;;
59824;SDS011;45703;50.898;6.054;2022-07-29T00:29:54;5.13;;;1.40;;
59824;SDS011;45703;50.898;6.054;2022-07-29T00:32:19;8.32;;;1.63;;
59824;SDS011;45703;50.898;6.054;2022-07-29T00:34:45;6.25;;;1.60;;
59824;SDS011;45703;50.898;6.054;2022-07-29T00:37:28;7.15;;;1.60;;
59824;SDS011;45703;50.898;6.054;2022-07-29T00:39:54;5.47;;;1.70;;
59824;SDS011;45703;50.898;6.054;2022-07-29T00:42:20;6.07;;;1.55;;
59824;SDS011;45703;50.898;6.054;2022-07-29T00:44:45;6.72;;;1.73;;
59824;SDS011;45703;50.898;6.054;2022-07-29T00:47:10;6.90;;;1.58;;
59824;SDS011;45703;50.898;6.054;2022-07-29T00:49:37;6.15;;;1.60;;
59824;SDS011;45703;50.898;6.054;2022-07-29T00:52:04;6.95;;;2.17;;
59824;SDS011;45703;50.898;6.054;2022-07-29T00:54:30;7.15;;;2.10;;
59824;SDS011;45703;50.898;6.054;2022-07-29T00:56:58;8.32;;;2.17;;
59824;SDS011;45703;50.898;6.054;2022-07-29T00:59:24;9.02;;;2.72;;
59824;SDS011;45703;50.898;6.054;2022-07-29T01:01:51;7.82;;;2.40;;
59824;SDS011;45703;50.898;6.054;2022-07-29T01:04:17;6.53;;;2.08;;
59824;SDS011;45703;50.898;6.054;2022-07-29T01:06:42;8.48;;;2.67;;
59824;SDS011;45703;50.898;6.054;2022-07-29T01:09:08;6.90;;;2.38;;
59824;SDS011;45703;50.898;6.054;2022-07-29T01:11:35;8.30;;;2.40;;
59824;SDS011;45703;50.898;6.054;2022-07-29T01:14:01;7.20;;;2.28;;
59824;SDS011;45703;50.898;6.054;2022-07-29T01:16:30;5.85;;;2.00;;
59824;SDS011;45703;50.898;6.054;2022-07-29T01:19:00;9.40;;;2.25;;
59824;SDS011;45703;50.898;6.054;2022-07-29T01:21:52;8.13;;;2.42;;
59824;SDS011;45703;50.898;6.054;2022-07-29T01:24:26;6.50;;;2.15;;
59824;SDS011;45703;50.898;6.054;2022-07-29T01:29:49;6.50;;;2.13;;
59824;SDS011;45703;50.898;6.054;2022-07-29T01:32:21;6.22;;;2.00;;
59824;SDS011;45703;50.898;6.054;2022-07-29T01:37:35;6.80;;;2.03;;
59824;SDS011;45703;50.898;6.054;2022-07-29T01:40:02;6.97;;;2.28;;
59824;SDS011;45703;50.898;6.054;2022-07-29T01:42:38;7.80;;;2.17;;
59824;SDS011;45703;50.898;6.054;2022-07-29T01:50:33;7.50;;;2.47;;
59824;SDS011;45703;50.898;6.054;2022-07-29T01:53:01;7.43;;;2.15;;
59824;SDS011;45703;50.898;6.054;2022-07-29T01:55:31;8.27;;;2.45;;
59824;SDS011;45703;50.898;6.054;2022-07-29T01:57:59;6.53;;;2.15;;
59824;SDS011;45703;50.898;6.054;2022-07-29T02:00:26;9.48;;;2.10;;
59824;SDS011;45703;50.898;6.054;2022-07-29T02:02:54;7.82;;;2.35;;
59824;SDS011;45703;50.898;6.054;2022-07-29T02:05:21;6.85;;;2.10;;
59824;SDS011;45703;50.898;6.054;2022-07-29T02:07:48;7.82;;;2.20;;
59824;SDS011;45703;50.898;6.054;2022-07-29T02:10:17;7.15;;;2.55;;
59824;SDS011;45703;50.898;6.054;2022-07-29T02:12:46;6.68;;;2.28;;
59824;SDS011;45703;50.898;6.054;2022-07-29T02:15:13;6.93;;;2.50;;
59824;SDS011;45703;50.898;6.054;2022-07-29T02:17:42;7.28;;;2.40;;
59824;SDS011;45703;50.898;6.054;2022-07-29T02:20:11;7.67;;;2.33;;
59824;SDS011;45703;50.898;6.054;2022-07-29T02:22:38;6.90;;;2.33;;
59824;SDS011;45703;50.898;6.054;2022-07-29T02:25:05;6.03;;;2.13;;
59824;SDS011;45703;50.898;6.054;2022-07-29T02:27:33;8.07;;;2.25;;
59824;SDS011;45703;50.898;6.054;2022-07-29T02:30:00;5.88;;;2.17;;
59824;SDS011;45703;50.898;6.054;2022-07-29T02:32:28;7.43;;;2.80;;
59824;SDS011;45703;50.898;6.054;2022-07-29T02:34:55;7.18;;;2.08;;
59824;SDS011;45703;50.898;6.054;2022-07-29T02:37:23;6.22;;;2.03;;
59824;SDS011;45703;50.898;6.054;2022-07-29T02:39:49;6.53;;;1.85;;
59824;SDS011;45703;50.898;6.054;2022-07-29T02:42:17;7.63;;;2.60;;
59824;SDS011;45703;50.898;6.054;2022-07-29T02:44:45;8.10;;;2.30;;
59824;SDS011;45703;50.898;6.054;2022-07-29T02:47:27;7.03;;;2.53;;
59824;SDS011;45703;50.898;6.054;2022-07-29T02:50:04;9.68;;;2.58;;
59824;SDS011;45703;50.898;6.054;2022-07-29T02:52:37;7.60;;;2.50;;
59824;SDS011;45703;50.898;6.054;2022-07-29T03:00:56;8.40;;;2.53;;
59824;SDS011;45703;50.898;6.054;2022-07-29T03:03:25;6.35;;;2.28;;
59824;SDS011;45703;50.898;6.054;2022-07-29T03:05:55;7.05;;;2.40;;
59824;SDS011;45703;50.898;6.054;2022-07-29T03:08:22;6.93;;;2.50;;
59824;SDS011;45703;50.898;6.054;2022-07-29T03:10:49;8.18;;;3.03;;
59824;SDS011;45703;50.898;6.054;2022-07-29T03:13:16;6.28;;;2.10;;
59824;SDS011;45703;50.898;6.054;2022-07-29T03:15:42;6.13;;;2.28;;
59824;SDS011;45703;50.898;6.054;2022-07-29T03:18:09;6.53;;;2.33;;
59824;SDS011;45703;50.898;6.054;2022-07-29T03:20:35;7.32;;;2.10;;
59824;SDS011;45703;50.898;6.054;2022-07-29T03:23:01;7.78;;;2.40;;
59824;SDS011;45703;50.898;6.054;2022-07-29T03:25:27;8.55;;;2.47;;
59824;SDS011;45703;50.898;6.054;2022-07-29T03:27:52;6.30;;;2.40;;
59824;SDS011;45703;50.898;6.054;2022-07-29T03:30:17;7.28;;;2.22;;
59824;SDS011;45703;50.898;6.054;2022-07-29T03:32:43;5.95;;;2.17;;
59824;SDS011;45703;50.898;6.054;2022-07-29T03:35:09;6.13;;;2.22;;
59824;SDS011;45703;50.898;6.054;2022-07-29T03:37:34;7.03;;;2.30;;
59824;SDS011;45703;50.898;6.054;2022-07-29T03:40:01;7.15;;;2.97;;
59824;SDS011;45703;50.898;6.054;2022-07-29T03:42:33;6.93;;;2.28;;
59824;SDS011;45703;50.898;6.054;2022-07-29T03:45:02;6.03;;;2.25;;
59824;SDS011;45703;50.898;6.054;2022-07-29T03:47:31;8.23;;;2.80;;
59824;SDS011;45703;50.898;6.054;2022-07-29T03:50:00;7.38;;;2.10;;
59824;SDS011;45703;50.898;6.054;2022-07-29T03:52:30;6.57;;;2.30;;
59824;SDS011;45703;50.898;6.054;2022-07-29T03:54:56;6.93;;;2.20;;
59824;SDS011;45703;50.898;6.054;2022-07-29T03:57:23;7.88;;;2.28;;
59824;SDS011;45703;50.898;6.054;2022-07-29T03:59:52;6.75;;;2.17;;
59824;SDS011;45703;50.898;6.054;2022-07-29T04:02:18;9.45;;;2.72;;
59824;SDS011;45703;50.898;6.054;2022-07-29T04:04:44;6.10;;;2.20;;
59824;SDS011;45703;50.898;6.054;2022-07-29T04:07:12;8.68;;;2.50;;
59824;SDS011;45703;50.898;6.054;2022-07-29T04:09:38;6.03;;;2.25;;
59824;SDS011;45703;50.898;6.054;2022-07-29T04:12:04;6.53;;;2.50;;
59824;SDS011;45703;50.898;6.054;2022-07-29T04:14:30;6.65;;;2.33;;
59824;SDS011;45703;50.898;6.054;2022-07-29T04:16:56;8.27;;;2.70;;
59824;SDS011;45703;50.898;6.054;2022-07-29T04:19:22;7.25;;;2.25;;
59824;SDS011;45703;50.898;6.054;2022-07-29T04:21:47;5.82;;;2.15;;
59824;SDS011;45703;50.898;6.054;2022-07-29T04:24:12;8.73;;;2.30;;
59824;SDS011;45703;50.898;6.054;2022-07-29T04:26:38;6.13;;;2.25;;
59824;SDS011;45703;50.898;6.054;2022-07-29T04:29:03;8.07;;;2.47;;
59824;SDS011;45703;50.898;6.054;2022-07-29T04:31:28;7.20;;;2.50;;
59824;SDS011;45703;50.898;6.054;2022-07-29T04:33:54;7.15;;;2.30;;
59824;SDS011;45703;50.898;6.054;2022-07-29T04:36:19;7.40;;;2.58;;
59824;SDS011;45703;50.898;6.054;2022-07-29T04:38:44;6.25;;;2.20;;
59824;SDS011;45703;50.898;6.054;2022-07-29T04:41:09;6.20;;;2.33;;
59824;SDS011;45703;50.898;6.054;2022-07-29T04:43:35;5.80;;;2.30;;
59824;SDS011;45703;50.898;6.054;2022-07-29T04:46:01;6.95;;;2.33;;
59824;SDS011;45703;50.898;6.054;2022-07-29T04:48:27;8.07;;;2.30;;
59824;SDS011;45703;50.898;6.054;2022-07-29T04:50:53;7.03;;;2.38;;
59824;SDS011;45703;50.898;6.054;2022-07-29T04:53:18;8.18;;;2.70;;
59824;SDS011;45703;50.898;6.054;2022-07-29T04:55:43;7.15;;;2.30;;
59824;SDS011;45703;50.898;6.054;2022-07-29T04:58:09;6.28;;;2.03;;
59824;SDS011;45703;50.898;6.054;2022-07-29T05:00:35;7.93;;;2.20;;
59824;SDS011;45703;50.898;6.054;2022-07-29T05:03:00;7.22;;;2.70;;
59824;SDS011;45703;50.898;6.054;2022-07-29T05:05:26;6.10;;;2.28;;
59824;SDS011;45703;50.898;6.054;2022-07-29T05:07:52;6.25;;;2.15;;
59824;SDS011;45703;50.898;6.054;2022-07-29T05:10:17;6.90;;;2.20;;
59824;SDS011;45703;50.898;6.054;2022-07-29T05:12:42;5.90;;;2.15;;
59824;SDS011;45703;50.898;6.054;2022-07-29T05:15:08;6.55;;;2.30;;
59824;SDS011;45703;50.898;6.054;2022-07-29T05:17:34;8.27;;;2.22;;
59824;SDS011;45703;50.898;6.054;2022-07-29T05:19:59;6.88;;;2.00;;
59824;SDS011;45703;50.898;6.054;2022-07-29T05:22:24;8.68;;;2.50;;
59824;SDS011;45703;50.898;6.054;2022-07-29T05:24:50;7.20;;;2.08;;
59824;SDS011;45703;50.898;6.054;2022-07-29T05:27:15;7.25;;;2.33;;
59824;SDS011;45703;50.898;6.054;2022-07-29T05:29:41;7.18;;;2.55;;
59824;SDS011;45703;50.898;6.054;2022-07-29T05:32:06;5.97;;;2.15;;
59824;SDS011;45703;50.898;6.054;2022-07-29T05:34:31;9.82;;;2.75;;
59824;SDS011;45703;50.898;6.054;2022-07-29T05:36:57;9.32;;;2.60;;
59824;SDS011;45703;50.898;6.054;2022-07-29T05:39:22;6.93;;;2.05;;
59824;SDS011;45703;50.898;6.054;2022-07-29T05:41:48;6.30;;;2.45;;
59824;SDS011;45703;50.898;6.054;2022-07-29T05:44:14;6.75;;;2.63;;
59824;SDS011;45703;50.898;6.054;2022-07-29T05:46:39;6.68;;;2.20;;
59824;SDS011;45703;50.898;6.054;2022-07-29T05:49:05;7.88;;;2.30;;
59824;SDS011;45703;50.898;6.054;2022-07-29T05:51:31;7.30;;;2.40;;
59824;SDS011;45703;50.898;6.054;2022-07-29T05:53:57;7.63;;;2.70;;
59824;SDS011;45703;50.898;6.054;2022-07-29T05:56:23;7.38;;;2.15;;
59824;SDS011;45703;50.898;6.054;2022-07-29T05:58:48;9.20;;;2.33;;
59824;SDS011;45703;50.898;6.054;2022-07-29T06:01:13;8.68;;;2.60;;
59824;SDS011;45703;50.898;6.054;2022-07-29T06:03:38;7.65;;;2.33;;
59824;SDS011;45703;50.898;6.054;2022-07-29T06:06:06;7.78;;;2.42;;
59824;SDS011;45703;50.898;6.054;2022-07-29T06:08:32;6.15;;;1.95;;
59824;SDS011;45703;50.898;6.054;2022-07-29T06:10:58;7.97;;;2.40;;
59824;SDS011;45703;50.898;6.054;2022-07-29T06:13:24;8.55;;;2.40;;
59824;SDS011;45703;50.898;6.054;2022-07-29T06:15:49;10.73;;;2.38;;
59824;SDS011;45703;50.898;6.054;2022-07-29T06:18:15;9.25;;;2.30;;
59824;SDS011;45703;50.898;6.054;2022-07-29T06:20:40;7.93;;;2.30;;
59824;SDS011;45703;50.898;6.054;2022-07-29T06:23:05;7.40;;;2.30;;
59824;SDS011;45703;50.898;6.054;2022-07-29T06:25:31;7.88;;;2.17;;
59824;SDS011;45703;50.898;6.054;2022-07-29T06:28:02;7.70;;;2.28;;
59824;SDS011;45703;50.898;6.054;2022-07-29T06:30:28;5.07;;;1.80;;
59824;SDS011;45703;50.898;6.054;2022-07-29T06:32:54;6.85;;;2.65;;
59824;SDS011;45703;50.898;6.054;2022-07-29T06:35:20;7.65;;;2.53;;
59824;SDS011;45703;50.898;6.054;2022-07-29T06:37:45;6.78;;;2.47;;
59824;SDS011;45703;50.898;6.054;2022-07-29T06:40:11;8.43;;;2.50;;
59824;SDS011;45703;50.898;6.054;2022-07-29T06:42:55;7.78;;;2.25;;
59824;SDS011;45703;50.898;6.054;2022-07-29T06:45:20;7.40;;;2.28;;
59824;SDS011;45703;50.898;6.054;2022-07-29T06:47:46;8.77;;;2.38;;
59824;SDS011;45703;50.898;6.054;2022-07-29T06:50:11;8.35;;;2.60;;
59824;SDS011;45703;50.898;6.054;2022-07-29T06:52:37;6.45;;;2.17;;
59824;SDS011;45703;50.898;6.054;2022-07-29T06:55:03;7.18;;;2.17;;
59824;SDS011;45703;50.898;6.054;2022-07-29T06:57:29;9.13;;;2.60;;
59824;SDS011;45703;50.898;6.054;2022-07-29T06:59:57;6.93;;;2.28;;
59824;SDS011;45703;50.898;6.054;2022-07-29T07:02:23;6.68;;;2.20;;
59824;SDS011;45703;50.898;6.054;2022-07-29T07:04:48;7.82;;;2.83;;
59824;SDS011;45703;50.898;6.054;2022-07-29T07:07:14;7.15;;;2.20;;
59824;SDS011;45703;50.898;6.054;2022-07-29T07:09:39;7.35;;;2.25;;
59824;SDS011;45703;50.898;6.054;2022-07-29T07:12:05;7.15;;;2.30;;
59824;SDS011;45703;50.898;6.054;2022-07-29T07:14:30;6.95;;;2.45;;
59824;SDS011;45703;50.898;6.054;2022-07-29T07:16:56;8.68;;;2.67;;
59824;SDS011;45703;50.898;6.054;2022-07-29T07:19:22;7.53;;;2.88;;
59824;SDS011;45703;50.898;6.054;2022-07-29T07:21:47;8.07;;;2.60;;
59824;SDS011;45703;50.898;6.054;2022-07-29T07:24:12;6.43;;;2.40;;
59824;SDS011;45703;50.898;6.054;2022-07-29T07:26:38;7.03;;;2.28;;
59824;SDS011;45703;50.898;6.054;2022-07-29T07:29:04;6.47;;;2.35;;
59824;SDS011;45703;50.898;6.054;2022-07-29T07:31:30;8.80;;;2.22;;
59824;SDS011;45703;50.898;6.054;2022-07-29T07:33:55;7.68;;;2.30;;
59824;SDS011;45703;50.898;6.054;2022-07-29T07:36:21;7.95;;;2.33;;
59824;SDS011;45703;50.898;6.054;2022-07-29T07:38:46;5.70;;;2.40;;
59824;SDS011;45703;50.898;6.054;2022-07-29T07:41:12;6.88;;;2.03;;
59824;SDS011;45703;50.898;6.054;2022-07-29T07:43:37;6.05;;;2.15;;
59824;SDS011;45703;50.898;6.054;2022-07-29T07:46:02;8.07;;;2.58;;
59824;SDS011;45703;50.898;6.054;2022-07-29T07:48:29;7.53;;;2.60;;
59824;SDS011;45703;50.898;6.054;2022-07-29T07:50:54;8.32;;;3.10;;
59824;SDS011;45703;50.898;6.054;2022-07-29T07:53:20;7.38;;;2.20;;
59824;SDS011;45703;50.898;6.054;2022-07-29T07:55:45;7.22;;;3.10;;
59824;SDS011;45703;50.898;6.054;2022-07-29T07:58:10;7.45;;;2.65;;
59824;SDS011;45703;50.898;6.054;2022-07-29T08:00:36;6.45;;;2.40;;
59824;SDS011;45703;50.898;6.054;2022-07-29T08:03:02;7.93;;;2.80;;
59824;SDS011;45703;50.898;6.054;2022-07-29T08:05:27;6.90;;;2.50;;
59824;SDS011;45703;50.898;6.054;2022-07-29T08:07:53;7.38;;;2.85;;
59824;SDS011;45703;50.898;6.054;2022-07-29T08:10:19;7.65;;;2.70;;
59824;SDS011;45703;50.898;6.054;2022-07-29T08:13:04;7.43;;;2.60;;
59824;SDS011;45703;50.898;6.054;2022-07-29T08:15:30;8.40;;;2.80;;
59824;SDS011;45703;50.898;6.054;2022-07-29T08:17:55;8.38;;;3.03;;
59824;SDS011;45703;50.898;6.054;2022-07-29T08:20:21;8.35;;;2.85;;
59824;SDS011;45703;50.898;6.054;2022-07-29T08:22:46;8.15;;;3.05;;
59824;SDS011;45703;50.898;6.054;2022-07-29T08:25:11;7.60;;;2.88;;
59824;SDS011;45703;50.898;6.054;2022-07-29T08:27:37;7.95;;;3.00;;
59824;SDS011;45703;50.898;6.054;2022-07-29T08:30:02;6.93;;;2.70;;
59824;SDS011;45703;50.898;6.054;2022-07-29T08:32:28;7.40;;;2.50;;
59824;SDS011;45703;50.898;6.054;2022-07-29T08:34:53;10.90;;;3.10;;
59824;SDS011;45703;50.898;6.054;2022-07-29T08:37:19;8.70;;;3.35;;
59824;SDS011;45703;50.898;6.054;2022-07-29T08:39:44;8.60;;;3.28;;
59824;SDS011;45703;50.898;6.054;2022-07-29T08:42:10;8.60;;;3.03;;
59824;SDS011;45703;50.898;6.054;2022-07-29T08:44:36;7.40;;;2.60;;
59824;SDS011;45703;50.898;6.054;2022-07-29T08:47:01;6.97;;;3.03;;
59824;SDS011;45703;50.898;6.054;2022-07-29T08:49:27;7.55;;;2.90;;
59824;SDS011;45703;50.898;6.054;2022-07-29T08:51:52;9.48;;;3.22;;
59824;SDS011;45703;50.898;6.054;2022-07-29T08:54:18;7.57;;;3.13;;
59824;SDS011;45703;50.898;6.054;2022-07-29T08:56:50;7.85;;;3.10;;
59824;SDS011;45703;50.898;6.054;2022-07-29T08:59:16;9.63;;;3.42;;
59824;SDS011;45703;50.898;6.054;2022-07-29T09:01:45;9.87;;;3.10;;
59824;SDS011;45703;50.898;6.054;2022-07-29T09:04:11;10.50;;;3.33;;
59824;SDS011;45703;50.898;6.054;2022-07-29T09:06:41;6.78;;;3.20;;
59824;SDS011;45703;50.898;6.054;2022-07-29T09:09:09;10.30;;;3.75;;
59824;SDS011;45703;50.898;6.054;2022-07-29T09:11:34;10.55;;;3.28;;
59824;SDS011;45703;50.898;6.054;2022-07-29T09:14:00;9.52;;;3.60;;
59824;SDS011;45703;50.898;6.054;2022-07-29T09:16:25;9.35;;;3.40;;
59824;SDS011;45703;50.898;6.054;2022-07-29T09:18:50;8.43;;;3.85;;
59824;SDS011;45703;50.898;6.054;2022-07-29T09:21:16;8.02;;;3.35;;
59824;SDS011;45703;50.898;6.054;2022-07-29T09:24:08;8.75;;;3.42;;
59824;SDS011;45703;50.898;6.054;2022-07-29T09:26:39;8.45;;;3.72;;
59824;SDS011;45703;50.898;6.054;2022-07-29T09:29:07;7.93;;;3.63;;
59824;SDS011;45703;50.898;6.054;2022-07-29T09:31:38;11.27;;;4.00;;
59824;SDS011;45703;50.898;6.054;2022-07-29T09:34:05;9.52;;;3.85;;
59824;SDS011;45703;50.898;6.054;2022-07-29T09:36:38;7.72;;;3.22;;
59824;SDS011;45703;50.898;6.054;2022-07-29T09:39:04;8.20;;;3.45;;
59824;SDS011;45703;50.898;6.054;2022-07-29T09:41:29;8.82;;;4.32;;
59824;SDS011;45703;50.898;6.054;2022-07-29T09:44:08;8.52;;;3.88;;
59824;SDS011;45703;50.898;6.054;2022-07-29T09:46:33;11.65;;;4.05;;
59824;SDS011;45703;50.898;6.054;2022-07-29T09:49:06;9.07;;;3.88;;
59824;SDS011;45703;50.898;6.054;2022-07-29T09:51:36;10.05;;;4.93;;
59824;SDS011;45703;50.898;6.054;2022-07-29T09:54:07;9.50;;;4.35;;
59824;SDS011;45703;50.898;6.054;2022-07-29T09:56:47;9.23;;;4.38;;
59824;SDS011;45703;50.898;6.054;2022-07-29T09:59:13;12.43;;;4.90;;
59824;SDS011;45703;50.898;6.054;2022-07-29T10:01:38;10.95;;;4.50;;
59824;SDS011;45703;50.898;6.054;2022-07-29T10:04:04;8.73;;;4.30;;
59824;SDS011;45703;50.898;6.054;2022-07-29T10:06:29;9.88;;;4.55;;
59824;SDS011;45703;50.898;6.054;2022-07-29T10:09:06;9.55;;;4.70;;
59824;SDS011;45703;50.898;6.054;2022-07-29T10:11:35;9.90;;;4.32;;
59824;SDS011;45703;50.898;6.054;2022-07-29T10:14:02;9.10;;;4.70;;
59824;SDS011;45703;50.898;6.054;2022-07-29T10:16:28;8.98;;;4.30;;
59824;SDS011;45703;50.898;6.054;2022-07-29T10:18:57;8.93;;;4.28;;
59824;SDS011;45703;50.898;6.054;2022-07-29T10:21:24;9.18;;;4.93;;
59824;SDS011;45703;50.898;6.054;2022-07-29T10:23:50;8.23;;;4.78;;
59824;SDS011;45703;50.898;6.054;2022-07-29T10:26:16;8.82;;;5.30;;
59824;SDS011;45703;50.898;6.054;2022-07-29T10:28:42;9.05;;;4.72;;
59824;SDS011;45703;50.898;6.054;2022-07-29T10:31:08;10.95;;;5.30;;
59824;SDS011;45703;50.898;6.054;2022-07-29T10:34:02;9.45;;;4.90;;
59824;SDS011;45703;50.898;6.054;2022-07-29T10:36:54;9.77;;;5.30;;
59824;SDS011;45703;50.898;6.054;2022-07-29T10:44:42;8.02;;;4.32;;
59824;SDS011;45703;50.898;6.054;2022-07-29T10:47:08;10.43;;;5.45;;
59824;SDS011;45703;50.898;6.054;2022-07-29T10:49:54;8.80;;;4.90;;
59824;SDS011;45703;50.898;6.054;2022-07-29T11:00:36;8.65;;;4.72;;
59824;SDS011;45703;50.898;6.054;2022-07-29T11:03:01;11.00;;;5.63;;
59824;SDS011;45703;50.898;6.054;2022-07-29T11:05:27;9.32;;;4.55;;
59824;SDS011;45703;50.898;6.054;2022-07-29T11:10:39;8.23;;;4.25;;
59824;SDS011;45703;50.898;6.054;2022-07-29T11:13:05;9.48;;;4.65;;
59824;SDS011;45703;50.898;6.054;2022-07-29T11:15:51;10.13;;;4.35;;
59824;SDS011;45703;50.898;6.054;2022-07-29T11:18:19;8.00;;;3.97;;
59824;SDS011;45703;50.898;6.054;2022-07-29T11:20:45;9.00;;;4.78;;
59824;SDS011;45703;50.898;6.054;2022-07-29T11:23:30;8.23;;;4.72;;
59824;SDS011;45703;50.898;6.054;2022-07-29T11:26:14;10.27;;;4.88;;
59824;SDS011;45703;50.898;6.054;2022-07-29T11:31:19;9.77;;;4.43;;
59824;SDS011;45703;50.898;6.054;2022-07-29T11:34:15;7.75;;;3.92;;
59824;SDS011;45703;50.898;6.054;2022-07-29T11:39:37;9.25;;;4.00;;
59824;SDS011;45703;50.898;6.054;2022-07-29T11:44:53;10.10;;;4.50;;
59824;SDS011;45703;50.898;6.054;2022-07-29T11:47:22;10.63;;;4.95;;
59824;SDS011;45703;50.898;6.054;2022-07-29T11:49:48;10.82;;;4.55;;
59824;SDS011;45703;50.898;6.054;2022-07-29T11:52:18;8.73;;;3.72;;
59824;SDS011;45703;50.898;6.054;2022-07-29T11:54:44;9.23;;;4.35;;
59824;SDS011;45703;50.898;6.054;2022-07-29T11:57:12;7.93;;;3.90;;
59824;SDS011;45703;50.898;6.054;2022-07-29T11:59:40;8.52;;;4.60;;
59824;SDS011;45703;50.898;6.054;2022-07-29T12:02:06;8.35;;;3.95;;
59824;SDS011;45703;50.898;6.054;2022-07-29T12:04:33;8.52;;;4.03;;
59824;SDS011;45703;50.898;6.054;2022-07-29T12:06:58;7.90;;;3.58;;
59824;SDS011;45703;50.898;6.054;2022-07-29T12:09:24;9.20;;;4.43;;
59824;SDS011;45703;50.898;6.054;2022-07-29T12:11:55;8.75;;;4.05;;
59824;SDS011;45703;50.898;6.054;2022-07-29T12:14:28;8.82;;;4.47;;
59824;SDS011;45703;50.898;6.054;2022-07-29T12:16:54;8.43;;;3.80;;
59824;SDS011;45703;50.898;6.054;2022-07-29T12:19:20;7.70;;;3.53;;
59824;SDS011;45703;50.898;6.054;2022-07-29T12:21:52;8.20;;;3.42;;
59824;SDS011;45703;50.898;6.054;2022-07-29T12:24:19;8.05;;;3.60;;
59824;SDS011;45703;50.898;6.054;2022-07-29T12:26:49;11.13;;;3.20;;
59824;SDS011;45703;50.898;6.054;2022-07-29T12:29:19;6.95;;;3.33;;
59824;SDS011;45703;50.898;6.054;2022-07-29T12:31:44;7.55;;;3.17;;
59824;SDS011;45703;50.898;6.054;2022-07-29T12:34:11;7.05;;;3.15;;
59824;SDS011;45703;50.898;6.054;2022-07-29T12:36:38;6.88;;;3.20;;
59824;SDS011;45703;50.898;6.054;2022-07-29T12:39:05;7.18;;;2.75;;
59824;SDS011;45703;50.898;6.054;2022-07-29T12:41:30;7.55;;;2.88;;
59824;SDS011;45703;50.898;6.054;2022-07-29T12:43:56;7.03;;;2.95;;
59824;SDS011;45703;50.898;6.054;2022-07-29T12:46:22;6.63;;;2.75;;
59824;SDS011;45703;50.898;6.054;2022-07-29T12:48:50;6.72;;;3.00;;
59824;SDS011;45703;50.898;6.054;2022-07-29T12:51:29;6.15;;;2.50;;
59824;SDS011;45703;50.898;6.054;2022-07-29T12:54:03;7.57;;;2.50;;
59824;SDS011;45703;50.898;6.054;2022-07-29T12:56:29;6.55;;;2.75;;
59824;SDS011;45703;50.898;6.054;2022-07-29T12:58:54;9.10;;;2.90;;
59824;SDS011;45703;50.898;6.054;2022-07-29T13:01:19;6.40;;;2.45;;
59824;SDS011;45703;50.898;6.054;2022-07-29T13:03:55;6.82;;;2.38;;
59824;SDS011;45703;50.898;6.054;2022-07-29T13:06:37;6.03;;;2.50;;
59824;SDS011;45703;50.898;6.054;2022-07-29T13:11:35;5.60;;;2.20;;
59824;SDS011;45703;50.898;6.054;2022-07-29T13:14:06;6.53;;;2.55;;
59824;SDS011;45703;50.898;6.054;2022-07-29T13:16:33;7.30;;;2.40;;
59824;SDS011;45703;50.898;6.054;2022-07-29T13:19:09;6.55;;;2.20;;
59824;SDS011;45703;50.898;6.054;2022-07-29T13:21:36;6.60;;;2.45;;
59824;SDS011;45703;50.898;6.054;2022-07-29T13:24:03;6.47;;;2.50;;
59824;SDS011;45703;50.898;6.054;2022-07-29T13:26:30;6.00;;;2.13;;
59824;SDS011;45703;50.898;6.054;2022-07-29T13:28:56;6.25;;;2.30;;
59824;SDS011;45703;50.898;6.054;2022-07-29T13:31:21;7.07;;;2.67;;
59824;SDS011;45703;50.898;6.054;2022-07-29T13:33:47;6.53;;;2.75;;
59824;SDS011;45703;50.898;6.054;2022-07-29T13:36:12;7.43;;;3.42;;
59824;SDS011;45703;50.898;6.054;2022-07-29T13:38:38;6.78;;;2.88;;
59824;SDS011;45703;50.898;6.054;2022-07-29T13:41:03;7.38;;;2.75;;
59824;SDS011;45703;50.898;6.054;2022-07-29T13:43:29;6.82;;;2.72;;
59824;SDS011;45703;50.898;6.054;2022-07-29T13:45:54;7.10;;;3.13;;
59824;SDS011;45703;50.898;6.054;2022-07-29T13:48:20;7.60;;;2.75;;
59824;SDS011;45703;50.898;6.054;2022-07-29T13:50:45;6.93;;;2.95;;
59824;SDS011;45703;50.898;6.054;2022-07-29T13:53:11;6.95;;;3.13;;
59824;SDS011;45703;50.898;6.054;2022-07-29T13:55:37;6.72;;;3.10;;
59824;SDS011;45703;50.898;6.054;2022-07-29T13:58:02;6.60;;;3.05;;
59824;SDS011;45703;50.898;6.054;2022-07-29T14:00:28;7.90;;;3.28;;
59824;SDS011;45703;50.898;6.054;2022-07-29T14:02:54;7.05;;;3.00;;
59824;SDS011;45703;50.898;6.054;2022-07-29T14:05:19;6.28;;;2.80;;
59824;SDS011;45703;50.898;6.054;2022-07-29T14:07:44;6.78;;;3.00;;
59824;SDS011;45703;50.898;6.054;2022-07-29T14:10:10;6.50;;;3.00;;
59824;SDS011;45703;50.898;6.054;2022-07-29T14:12:35;6.40;;;3.10;;
59824;SDS011;45703;50.898;6.054;2022-07-29T14:15:01;6.45;;;3.10;;
59824;SDS011;45703;50.898;6.054;2022-07-29T14:17:26;8.55;;;3.38;;
59824;SDS011;45703;50.898;6.054;2022-07-29T14:19:51;6.90;;;3.15;;
59824;SDS011;45703;50.898;6.054;2022-07-29T14:22:17;6.10;;;2.78;;
59824;SDS011;45703;50.898;6.054;2022-07-29T14:24:44;6.47;;;2.55;;
59824;SDS011;45703;50.898;6.054;2022-07-29T14:27:09;5.88;;;2.63;;
59824;SDS011;45703;50.898;6.054;2022-07-29T14:29:35;7.53;;;3.20;;
59824;SDS011;45703;50.898;6.054;2022-07-29T14:32:00;8.63;;;3.35;;
59824;SDS011;45703;50.898;6.054;2022-07-29T14:34:26;8.32;;;3.78;;
59824;SDS011;45703;50.898;6.054;2022-07-29T14:36:51;8.05;;;3.10;;
59824;SDS011;45703;50.898;6.054;2022-07-29T14:39:16;6.53;;;2.92;;
59824;SDS011;45703;50.898;6.054;2022-07-29T14:41:42;7.72;;;2.88;;
59824;SDS011;45703;50.898;6.054;2022-07-29T14:44:08;7.43;;;3.70;;
59824;SDS011;45703;50.898;6.054;2022-07-29T14:46:33;7.43;;;3.45;;
59824;SDS011;45703;50.898;6.054;2022-07-29T14:48:59;6.60;;;3.30;;
59824;SDS011;45703;50.898;6.054;2022-07-29T14:51:24;6.97;;;3.50;;
59824;SDS011;45703;50.898;6.054;2022-07-29T14:53:49;8.82;;;4.00;;
59824;SDS011;45703;50.898;6.054;2022-07-29T14:56:15;7.60;;;3.67;;
59824;SDS011;45703;50.898;6.054;2022-07-29T14:58:40;6.45;;;3.33;;
59824;SDS011;45703;50.898;6.054;2022-07-29T15:01:06;8.95;;;3.15;;
59824;SDS011;45703;50.898;6.054;2022-07-29T15:03:31;7.60;;;3.60;;
59824;SDS011;45703;50.898;6.054;2022-07-29T15:05:57;7.88;;;3.50;;
59824;SDS011;45703;50.898;6.054;2022-07-29T15:08:22;9.50;;;3.65;;
59824;SDS011;45703;50.898;6.054;2022-07-29T15:10:47;8.82;;;3.90;;
59824;SDS011;45703;50.898;6.054;2022-07-29T15:13:13;9.07;;;3.70;;
59824;SDS011;45703;50.898;6.054;2022-07-29T15:15:38;6.95;;;3.33;;
59824;SDS011;45703;50.898;6.054;2022-07-29T15:18:04;8.65;;;3.50;;
59824;SDS011;45703;50.898;6.054;2022-07-29T15:20:29;6.07;;;3.17;;
59824;SDS011;45703;50.898;6.054;2022-07-29T15:22:55;6.72;;;3.20;;
59824;SDS011;45703;50.898;6.054;2022-07-29T15:25:22;6.97;;;3.28;;
59824;SDS011;45703;50.898;6.054;2022-07-29T15:27:48;7.43;;;3.10;;
59824;SDS011;45703;50.898;6.054;2022-07-29T15:30:13;7.40;;;3.60;;
59824;SDS011;45703;50.898;6.054;2022-07-29T15:32:41;6.53;;;2.88;;